sensor_id;sensor_type;location;lat;lon;timestamp;pressure;altitude;pressure_sealevel;temperature;humidity
20013;BME280;10167;42.852;23.042;2022-09-27T00:00:07;93994.06;;;16.27;100.00
20013;BME280;10167;42.852;23.042;2022-09-27T00:02:40;93994.22;;;16.36;100.00
20013;BME280;10167;42.852;23.042;2022-09-27T00:05:10;93997.69;;;16.36;100.00
20013;BME280;10167;42.852;23.042;2022-09-27T00:07:39;93997.81;;;16.26;100.00
20013;BME280;10167;42.852;23.042;2022-09-27T00:10:08;93999.84;;;16.34;100.00
20013;BME280;10167;42.852;23.042;2022-09-27T00:12:38;94000.59;;;16.21;100.00
20013;BME280;10167;42.852;23.042;2022-09-27T00:15:08;94004.09;;;16.35;100.00
20013;BME280;10167;42.852;23.042;2022-09-27T00:17:37;93990.84;;;16.44;100.00
20013;BME280;10167;42.852;23.042;2022-09-27T00:20:07;94000.97;;;16.47;100.00
20013;BME280;10167;42.852;23.042;2022-09-27T00:22:38;93990.84;;;16.44;100.00
20013;BME280;10167;42.852;23.042;2022-09-27T00:25:07;93983.63;;;16.44;100.00
20013;BME280;10167;42.852;23.042;2022-09-27T00:27:36;93977.56;;;16.39;100.00
20013;BME280;10167;42.852;23.042;2022-09-27T00:30:06;93977.38;;;16.49;100.00
20013;BME280;10167;42.852;23.042;2022-09-27T00:32:35;93966.03;;;16.57;100.00
20013;BME280;10167;42.852;23.042;2022-09-27T00:35:04;93968.50;;;16.53;100.00
20013;BME280;10167;42.852;23.042;2022-09-27T00:37:33;93969.97;;;16.46;100.00
20013;BME280;10167;42.852;23.042;2022-09-27T00:40:05;93965.13;;;16.34;100.00
20013;BME280;10167;42.852;23.042;2022-09-27T00:42:34;93966.50;;;16.31;100.00
20013;BME280;10167;42.852;23.042;2022-09-27T00:45:08;93963.50;;;16.19;100.00
20013;BME280;10167;42.852;23.042;2022-09-27T00:47:42;93967.03;;;16.15;100.00
20013;BME280;10167;42.852;23.042;2022-09-27T00:50:24;93963.16;;;16.07;100.00
20013;BME280;10167;42.852;23.042;2022-09-27T00:53:01;93966.41;;;16.04;100.00
20013;BME280;10167;42.852;23.042;2022-09-27T00:55:35;93956.50;;;15.91;100.00
20013;BME280;10167;42.852;23.042;2022-09-27T00:58:06;93947.59;;;15.95;100.00
20013;BME280;10167;42.852;23.042;2022-09-27T01:00:37;93953.16;;;15.99;100.00
20013;BME280;10167;42.852;23.042;2022-09-27T01:03:08;93951.56;;;15.98;100.00
20013;BME280;10167;42.852;23.042;2022-09-27T01:05:40;93954.53;;;15.96;100.00
20013;BME280;10167;42.852;23.042;2022-09-27T01:08:10;93954.31;;;15.93;100.00
20013;BME280;10167;42.852;23.042;2022-09-27T01:10:47;93949.09;;;15.88;100.00
20013;BME280;10167;42.852;23.042;2022-09-27T01:13:29;93944.25;;;15.90;100.00
20013;BME280;10167;42.852;23.042;2022-09-27T01:16:05;93951.47;;;15.89;100.00
20013;BME280;10167;42.852;23.042;2022-09-27T01:18:44;93942.38;;;15.90;100.00
20013;BME280;10167;42.852;23.042;2022-09-27T01:21:36;93932.78;;;15.89;100.00
20013;BME280;10167;42.852;23.042;2022-09-27T01:24:27;93927.38;;;16.08;100.00
20013;BME280;10167;42.852;23.042;2022-09-27T01:27:32;93921.63;;;16.15;100.00
20013;BME280;10167;42.852;23.042;2022-09-27T01:30:19;93924.22;;;16.20;100.00
20013;BME280;10167;42.852;23.042;2022-09-27T01:33:02;93923.34;;;16.24;100.00
20013;BME280;10167;42.852;23.042;2022-09-27T01:35:35;93927.00;;;16.28;100.00
20013;BME280;10167;42.852;23.042;2022-09-27T01:38:13;93932.78;;;16.03;100.00
20013;BME280;10167;42.852;23.042;2022-09-27T01:40:51;93933.44;;;16.14;100.00
20013;BME280;10167;42.852;23.042;2022-09-27T01:43:48;93926.06;;;16.06;100.00
20013;BME280;10167;42.852;23.042;2022-09-27T01:46:30;93912.63;;;15.97;100.00
20013;BME280;10167;42.852;23.042;2022-09-27T01:49:32;93914.56;;;15.91;100.00
20013;BME280;10167;42.852;23.042;2022-09-27T01:52:05;93900.66;;;16.08;100.00
20013;BME280;10167;42.852;23.042;2022-09-27T01:54:38;93895.25;;;16.13;100.00
20013;BME280;10167;42.852;23.042;2022-09-27T01:57:32;93891.28;;;16.11;100.00
20013;BME280;10167;42.852;23.042;2022-09-27T02:00:11;93889.38;;;15.97;100.00
20013;BME280;10167;42.852;23.042;2022-09-27T02:02:46;93895.22;;;16.00;100.00
20013;BME280;10167;42.852;23.042;2022-09-27T02:05:31;93891.44;;;15.87;100.00
20013;BME280;10167;42.852;23.042;2022-09-27T02:08:13;93879.97;;;15.86;100.00
20013;BME280;10167;42.852;23.042;2022-09-27T02:10:45;93879.97;;;15.86;100.00
20013;BME280;10167;42.852;23.042;2022-09-27T02:13:21;93879.38;;;15.89;100.00
20013;BME280;10167;42.852;23.042;2022-09-27T02:16:00;93886.78;;;15.92;100.00
20013;BME280;10167;42.852;23.042;2022-09-27T02:18:49;93881.25;;;15.89;100.00
20013;BME280;10167;42.852;23.042;2022-09-27T02:21:24;93880.97;;;15.90;100.00
20013;BME280;10167;42.852;23.042;2022-09-27T02:24:00;93872.28;;;15.98;100.00
20013;BME280;10167;42.852;23.042;2022-09-27T02:26:35;93875.94;;;16.03;100.00
20013;BME280;10167;42.852;23.042;2022-09-27T02:29:07;93880.56;;;15.97;100.00
20013;BME280;10167;42.852;23.042;2022-09-27T02:31:46;93868.00;;;15.97;100.00
20013;BME280;10167;42.852;23.042;2022-09-27T02:34:20;93875.03;;;15.93;100.00
20013;BME280;10167;42.852;23.042;2022-09-27T02:36:50;93874.44;;;15.96;100.00
20013;BME280;10167;42.852;23.042;2022-09-27T02:39:21;93879.00;;;15.96;100.00
20013;BME280;10167;42.852;23.042;2022-09-27T02:41:59;93877.19;;;15.91;100.00
20013;BME280;10167;42.852;23.042;2022-09-27T02:44:28;93889.22;;;15.75;100.00
20013;BME280;10167;42.852;23.042;2022-09-27T02:47:11;93883.09;;;15.75;100.00
20013;BME280;10167;42.852;23.042;2022-09-27T02:49:58;93879.06;;;15.77;100.00
20013;BME280;10167;42.852;23.042;2022-09-27T02:52:54;93880.03;;;15.81;100.00
20013;BME280;10167;42.852;23.042;2022-09-27T02:55:45;93867.16;;;15.56;100.00
20013;BME280;10167;42.852;23.042;2022-09-27T02:58:48;93879.88;;;15.59;100.00
20013;BME280;10167;42.852;23.042;2022-09-27T03:01:46;93878.00;;;15.59;100.00
20013;BME280;10167;42.852;23.042;2022-09-27T03:04:30;93866.97;;;15.47;100.00
20013;BME280;10167;42.852;23.042;2022-09-27T03:07:04;93865.75;;;15.58;100.00
20013;BME280;10167;42.852;23.042;2022-09-27T03:09:40;93856.88;;;15.63;100.00
20013;BME280;10167;42.852;23.042;2022-09-27T03:12:10;93855.41;;;15.57;100.00
20013;BME280;10167;42.852;23.042;2022-09-27T03:14:39;93845.25;;;15.54;100.00
20013;BME280;10167;42.852;23.042;2022-09-27T03:17:27;93839.38;;;15.57;100.00
20013;BME280;10167;42.852;23.042;2022-09-27T03:20:22;93845.63;;;15.47;100.00
20013;BME280;10167;42.852;23.042;2022-09-27T03:23:02;93858.63;;;15.35;100.00
20013;BME280;10167;42.852;23.042;2022-09-27T03:25:31;93841.94;;;15.30;100.00
20013;BME280;10167;42.852;23.042;2022-09-27T03:28:01;93835.91;;;15.38;100.00
20013;BME280;10167;42.852;23.042;2022-09-27T03:30:30;93837.97;;;15.27;100.00
20013;BME280;10167;42.852;23.042;2022-09-27T03:33:00;93834.00;;;15.24;100.00
20013;BME280;10167;42.852;23.042;2022-09-27T03:35:55;93833.13;;;15.29;100.00
20013;BME280;10167;42.852;23.042;2022-09-27T03:38:25;93813.16;;;15.26;100.00
20013;BME280;10167;42.852;23.042;2022-09-27T03:40:54;93811.38;;;15.22;100.00
20013;BME280;10167;42.852;23.042;2022-09-27T03:43:24;93814.00;;;15.41;100.00
20013;BME280;10167;42.852;23.042;2022-09-27T03:45:57;93807.31;;;15.43;100.00
20013;BME280;10167;42.852;23.042;2022-09-27T03:48:26;93806.47;;;15.29;100.00
20013;BME280;10167;42.852;23.042;2022-09-27T03:50:57;93816.97;;;15.39;100.00
20013;BME280;10167;42.852;23.042;2022-09-27T03:53:29;93820.03;;;15.46;100.00
20013;BME280;10167;42.852;23.042;2022-09-27T03:55:58;93810.44;;;15.32;100.00
20013;BME280;10167;42.852;23.042;2022-09-27T03:58:28;93815.53;;;15.28;100.00
20013;BME280;10167;42.852;23.042;2022-09-27T04:00:57;93818.53;;;15.40;100.00
20013;BME280;10167;42.852;23.042;2022-09-27T04:03:27;93832.47;;;15.37;100.00
20013;BME280;10167;42.852;23.042;2022-09-27T04:06:35;93830.22;;;15.44;100.00
20013;BME280;10167;42.852;23.042;2022-09-27T04:09:05;93828.63;;;15.43;100.00
20013;BME280;10167;42.852;23.042;2022-09-27T04:11:56;93832.06;;;15.30;100.00
20013;BME280;10167;42.852;23.042;2022-09-27T04:14:26;93827.84;;;15.43;100.00
20013;BME280;10167;42.852;23.042;2022-09-27T04:17:15;93823.00;;;15.45;100.00
20013;BME280;10167;42.852;23.042;2022-09-27T04:20:05;93817.88;;;15.48;100.00
20013;BME280;10167;42.852;23.042;2022-09-27T04:22:38;93824.78;;;15.49;100.00
20013;BME280;10167;42.852;23.042;2022-09-27T04:25:12;93810.88;;;15.52;100.00
20013;BME280;10167;42.852;23.042;2022-09-27T04:27:43;93804.75;;;15.52;100.00
20013;BME280;10167;42.852;23.042;2022-09-27T04:30:14;93815.19;;;15.48;100.00
20013;BME280;10167;42.852;23.042;2022-09-27T04:32:55;93816.28;;;15.47;100.00
20013;BME280;10167;42.852;23.042;2022-09-27T04:35:50;93816.00;;;15.49;100.00
20013;BME280;10167;42.852;23.042;2022-09-27T04:38:41;93807.91;;;15.54;100.00
20013;BME280;10167;42.852;23.042;2022-09-27T04:41:12;93809.28;;;15.51;100.00
20013;BME280;10167;42.852;23.042;2022-09-27T04:43:41;93807.88;;;15.40;100.00
20013;BME280;10167;42.852;23.042;2022-09-27T04:46:10;93811.44;;;15.49;100.00
20013;BME280;10167;42.852;23.042;2022-09-27T04:48:40;93826.38;;;15.50;100.00
20013;BME280;10167;42.852;23.042;2022-09-27T04:51:09;93827.66;;;15.53;100.00
20013;BME280;10167;42.852;23.042;2022-09-27T04:53:38;93828.41;;;15.58;100.00
20013;BME280;10167;42.852;23.042;2022-09-27T04:56:07;93818.03;;;15.57;100.00
20013;BME280;10167;42.852;23.042;2022-09-27T04:58:38;93811.31;;;15.59;100.00
20013;BME280;10167;42.852;23.042;2022-09-27T05:01:07;93824.00;;;15.68;100.00
20013;BME280;10167;42.852;23.042;2022-09-27T05:03:55;93802.44;;;15.64;100.00
20013;BME280;10167;42.852;23.042;2022-09-27T05:06:26;93799.66;;;15.69;100.00
20013;BME280;10167;42.852;23.042;2022-09-27T05:09:01;93798.78;;;15.74;100.00
20013;BME280;10167;42.852;23.042;2022-09-27T05:11:33;93789.88;;;15.65;100.00
20013;BME280;10167;42.852;23.042;2022-09-27T05:14:24;93790.78;;;15.41;100.00
20013;BME280;10167;42.852;23.042;2022-09-27T05:17:15;93778.34;;;15.50;100.00
20013;BME280;10167;42.852;23.042;2022-09-27T05:20:14;93786.66;;;15.49;100.00
20013;BME280;10167;42.852;23.042;2022-09-27T05:22:51;93791.19;;;15.48;100.00
20013;BME280;10167;42.852;23.042;2022-09-27T05:25:20;93785.97;;;15.43;100.00
20013;BME280;10167;42.852;23.042;2022-09-27T05:27:49;93776.16;;;15.39;100.00
20013;BME280;10167;42.852;23.042;2022-09-27T05:30:20;93759.75;;;15.32;100.00
20013;BME280;10167;42.852;23.042;2022-09-27T05:32:55;93768.91;;;15.25;100.00
20013;BME280;10167;42.852;23.042;2022-09-27T05:35:42;93768.72;;;15.36;100.00
20013;BME280;10167;42.852;23.042;2022-09-27T05:38:14;93775.13;;;15.21;100.00
20013;BME280;10167;42.852;23.042;2022-09-27T05:40:47;93772.38;;;15.26;100.00
20013;BME280;10167;42.852;23.042;2022-09-27T05:43:17;93765.69;;;15.42;100.00
20013;BME280;10167;42.852;23.042;2022-09-27T05:45:49;93769.16;;;15.43;100.00
20013;BME280;10167;42.852;23.042;2022-09-27T05:48:20;93766.75;;;15.27;100.00
20013;BME280;10167;42.852;23.042;2022-09-27T05:51:02;93753.63;;;15.31;100.00
20013;BME280;10167;42.852;23.042;2022-09-27T05:53:35;93746.72;;;15.30;100.00
20013;BME280;10167;42.852;23.042;2022-09-27T05:56:07;93754.94;;;15.34;100.00
20013;BME280;10167;42.852;23.042;2022-09-27T05:59:08;93754.94;;;15.47;100.00
20013;BME280;10167;42.852;23.042;2022-09-27T06:01:58;93760.97;;;15.53;100.00
20013;BME280;10167;42.852;23.042;2022-09-27T06:04:48;93757.94;;;15.59;100.00
20013;BME280;10167;42.852;23.042;2022-09-27T06:07:35;93769.78;;;15.53;100.00
20013;BME280;10167;42.852;23.042;2022-09-27T06:10:09;93790.97;;;15.64;100.00
20013;BME280;10167;42.852;23.042;2022-09-27T06:12:38;93797.31;;;15.68;100.00
20013;BME280;10167;42.852;23.042;2022-09-27T06:15:24;93799.25;;;15.62;100.00
20013;BME280;10167;42.852;23.042;2022-09-27T06:17:54;93798.78;;;15.74;100.00
20013;BME280;10167;42.852;23.042;2022-09-27T06:20:23;93803.53;;;15.77;100.00
20013;BME280;10167;42.852;23.042;2022-09-27T06:22:53;93791.97;;;15.81;100.00
20013;BME280;10167;42.852;23.042;2022-09-27T06:25:24;93783.38;;;15.84;100.00
20013;BME280;10167;42.852;23.042;2022-09-27T06:28:25;93796.34;;;15.91;100.00
20013;BME280;10167;42.852;23.042;2022-09-27T06:30:56;93800.28;;;15.93;100.00
20013;BME280;10167;42.852;23.042;2022-09-27T06:33:40;93804.22;;;15.96;100.00
20013;BME280;10167;42.852;23.042;2022-09-27T06:36:09;93814.13;;;15.95;100.00
20013;BME280;10167;42.852;23.042;2022-09-27T06:38:40;93802.94;;;16.07;100.00
20013;BME280;10167;42.852;23.042;2022-09-27T06:41:32;93799.19;;;16.08;100.00
20013;BME280;10167;42.852;23.042;2022-09-27T06:44:20;93810.38;;;16.10;100.00
20013;BME280;10167;42.852;23.042;2022-09-27T06:47:10;93804.44;;;16.13;100.00
20013;BME280;10167;42.852;23.042;2022-09-27T06:49:58;93807.28;;;16.03;100.00
20013;BME280;10167;42.852;23.042;2022-09-27T06:52:33;93819.47;;;16.09;100.00
20013;BME280;10167;42.852;23.042;2022-09-27T06:55:04;93817.19;;;16.16;100.00
20013;BME280;10167;42.852;23.042;2022-09-27T06:57:33;93817.09;;;16.21;100.00
20013;BME280;10167;42.852;23.042;2022-09-27T07:00:19;93816.22;;;16.12;100.00
20013;BME280;10167;42.852;23.042;2022-09-27T07:03:22;93809.88;;;16.08;100.00
20013;BME280;10167;42.852;23.042;2022-09-27T07:06:26;93799.69;;;15.96;100.00
20013;BME280;10167;42.852;23.042;2022-09-27T07:09:04;93814.81;;;16.01;100.00
20013;BME280;10167;42.852;23.042;2022-09-27T07:11:34;93820.16;;;16.01;100.00
20013;BME280;10167;42.852;23.042;2022-09-27T07:14:03;93820.06;;;16.06;100.00
20013;BME280;10167;42.852;23.042;2022-09-27T07:16:34;93827.47;;;16.09;100.00
20013;BME280;10167;42.852;23.042;2022-09-27T07:19:04;93815.91;;;16.00;100.00
20013;BME280;10167;42.852;23.042;2022-09-27T07:21:35;93821.91;;;15.92;100.00
20013;BME280;10167;42.852;23.042;2022-09-27T07:24:04;93825.50;;;16.01;100.00
20013;BME280;10167;42.852;23.042;2022-09-27T07:26:33;93817.38;;;16.06;100.00
20013;BME280;10167;42.852;23.042;2022-09-27T07:29:04;93823.41;;;15.98;100.00
20013;BME280;10167;42.852;23.042;2022-09-27T07:31:34;93814.22;;;16.04;100.00
20013;BME280;10167;42.852;23.042;2022-09-27T07:34:03;93811.75;;;16.08;100.00
20013;BME280;10167;42.852;23.042;2022-09-27T07:36:32;93817.47;;;16.15;100.00
20013;BME280;10167;42.852;23.042;2022-09-27T07:39:02;93817.88;;;16.22;100.00
20013;BME280;10167;42.852;23.042;2022-09-27T07:41:33;93807.78;;;16.19;100.00
20013;BME280;10167;42.852;23.042;2022-09-27T07:44:02;93802.03;;;16.25;100.00
20013;BME280;10167;42.852;23.042;2022-09-27T07:46:34;93802.75;;;16.31;100.00
20013;BME280;10167;42.852;23.042;2022-09-27T07:49:08;93798.88;;;16.37;100.00
20013;BME280;10167;42.852;23.042;2022-09-27T07:51:40;93808.88;;;16.31;100.00
20013;BME280;10167;42.852;23.042;2022-09-27T07:54:48;93812.72;;;16.25;100.00
20013;BME280;10167;42.852;23.042;2022-09-27T07:57:44;93808.97;;;16.26;100.00
20013;BME280;10167;42.852;23.042;2022-09-27T08:00:15;93805.03;;;16.10;100.00
20013;BME280;10167;42.852;23.042;2022-09-27T08:02:46;93813.25;;;16.14;100.00
20013;BME280;10167;42.852;23.042;2022-09-27T08:05:15;93812.84;;;16.07;100.00
20013;BME280;10167;42.852;23.042;2022-09-27T08:07:44;93797.22;;;16.00;100.00
20013;BME280;10167;42.852;23.042;2022-09-27T08:10:15;93803.16;;;16.11;100.00
20013;BME280;10167;42.852;23.042;2022-09-27T08:12:44;93802.16;;;16.07;100.00
20013;BME280;10167;42.852;23.042;2022-09-27T08:15:13;93795.31;;;16.14;100.00
20013;BME280;10167;42.852;23.042;2022-09-27T08:17:42;93785.53;;;16.23;100.00
20013;BME280;10167;42.852;23.042;2022-09-27T08:20:17;93799.38;;;16.25;100.00
20013;BME280;10167;42.852;23.042;2022-09-27T08:23:15;93790.38;;;16.21;100.00
20013;BME280;10167;42.852;23.042;2022-09-27T08:25:52;93792.34;;;16.29;100.00
20013;BME280;10167;42.852;23.042;2022-09-27T08:28:35;93787.59;;;16.26;100.00
20013;BME280;10167;42.852;23.042;2022-09-27T08:31:13;93797.47;;;16.40;100.00
20013;BME280;10167;42.852;23.042;2022-09-27T08:33:42;93781.84;;;16.47;100.00
20013;BME280;10167;42.852;23.042;2022-09-27T08:36:12;93793.28;;;16.61;100.00
20013;BME280;10167;42.852;23.042;2022-09-27T08:38:41;93788.84;;;16.70;100.00
20013;BME280;10167;42.852;23.042;2022-09-27T08:41:19;93780.91;;;16.79;100.00
20013;BME280;10167;42.852;23.042;2022-09-27T08:44:02;93770.03;;;16.97;100.00
20013;BME280;10167;42.852;23.042;2022-09-27T08:46:46;93769.78;;;17.08;100.00
20013;BME280;10167;42.852;23.042;2022-09-27T08:49:24;93779.28;;;17.14;100.00
20013;BME280;10167;42.852;23.042;2022-09-27T08:51:56;93776.44;;;17.10;100.00
20013;BME280;10167;42.852;23.042;2022-09-27T08:54:29;93783.06;;;17.13;100.00
20013;BME280;10167;42.852;23.042;2022-09-27T08:57:04;93781.03;;;17.18;100.00
20013;BME280;10167;42.852;23.042;2022-09-27T08:59:36;93790.00;;;17.14;100.00
20013;BME280;10167;42.852;23.042;2022-09-27T09:02:14;93794.72;;;17.17;100.00
20013;BME280;10167;42.852;23.042;2022-09-27T09:04:51;93788.28;;;17.18;100.00
20013;BME280;10167;42.852;23.042;2022-09-27T09:07:39;93795.69;;;17.21;100.00
20013;BME280;10167;42.852;23.042;2022-09-27T09:10:21;93785.19;;;17.24;100.00
20013;BME280;10167;42.852;23.042;2022-09-27T09:13:17;93781.66;;;17.15;100.00
20013;BME280;10167;42.852;23.042;2022-09-27T09:16:04;93787.47;;;17.17;100.00
20013;BME280;10167;42.852;23.042;2022-09-27T09:18:53;93775.28;;;17.25;100.00
20013;BME280;10167;42.852;23.042;2022-09-27T09:21:58;93763.22;;;17.36;100.00
20013;BME280;10167;42.852;23.042;2022-09-27T09:24:41;93770.81;;;17.42;100.00
20013;BME280;10167;42.852;23.042;2022-09-27T09:27:17;93779.31;;;17.45;100.00
20013;BME280;10167;42.852;23.042;2022-09-27T09:30:19;93779.84;;;17.55;100.00
20013;BME280;10167;42.852;23.042;2022-09-27T09:33:12;93764.88;;;17.76;100.00
20013;BME280;10167;42.852;23.042;2022-09-27T09:35:47;93775.38;;;18.04;100.00
20013;BME280;10167;42.852;23.042;2022-09-27T09:38:21;93771.97;;;18.29;100.00
20013;BME280;10167;42.852;23.042;2022-09-27T09:40:57;93772.19;;;18.50;100.00
20013;BME280;10167;42.852;23.042;2022-09-27T09:43:32;93773.81;;;18.77;100.00
20013;BME280;10167;42.852;23.042;2022-09-27T09:46:10;93777.63;;;18.93;100.00
20013;BME280;10167;42.852;23.042;2022-09-27T09:48:44;93794.50;;;19.02;100.00
20013;BME280;10167;42.852;23.042;2022-09-27T09:51:17;93791.66;;;18.99;100.00
20013;BME280;10167;42.852;23.042;2022-09-27T09:53:53;93789.47;;;18.92;100.00
20013;BME280;10167;42.852;23.042;2022-09-27T09:56:34;93789.16;;;18.94;100.00
20013;BME280;10167;42.852;23.042;2022-09-27T09:59:08;93787.25;;;18.94;100.00
20013;BME280;10167;42.852;23.042;2022-09-27T10:01:44;93788.03;;;18.95;100.00
20013;BME280;10167;42.852;23.042;2022-09-27T10:04:14;93785.81;;;18.88;100.00
20013;BME280;10167;42.852;23.042;2022-09-27T10:06:46;93779.19;;;18.77;100.00
20013;BME280;10167;42.852;23.042;2022-09-27T10:09:20;93764.59;;;18.52;100.00
20013;BME280;10167;42.852;23.042;2022-09-27T10:12:12;93773.81;;;18.60;100.00
20013;BME280;10167;42.852;23.042;2022-09-27T10:14:45;93758.53;;;18.69;100.00
20013;BME280;10167;42.852;23.042;2022-09-27T10:17:20;93753.00;;;18.74;100.00
20013;BME280;10167;42.852;23.042;2022-09-27T10:19:50;93754.75;;;18.78;100.00
20013;BME280;10167;42.852;23.042;2022-09-27T10:22:25;93745.75;;;18.83;100.00
20013;BME280;10167;42.852;23.042;2022-09-27T10:25:01;93744.19;;;18.82;100.00
20013;BME280;10167;42.852;23.042;2022-09-27T10:27:53;93740.69;;;18.90;100.00
20013;BME280;10167;42.852;23.042;2022-09-27T10:30:31;93746.38;;;18.97;100.00
20013;BME280;10167;42.852;23.042;2022-09-27T10:33:15;93742.91;;;19.05;100.00
20013;BME280;10167;42.852;23.042;2022-09-27T10:35:59;93743.66;;;19.23;100.00
20013;BME280;10167;42.852;23.042;2022-09-27T10:38:35;93737.16;;;19.50;100.00
20013;BME280;10167;42.852;23.042;2022-09-27T10:41:26;93729.84;;;19.68;100.00
20013;BME280;10167;42.852;23.042;2022-09-27T10:44:19;93723.63;;;19.84;100.00
20013;BME280;10167;42.852;23.042;2022-09-27T10:47:16;93727.63;;;20.08;100.00
20013;BME280;10167;42.852;23.042;2022-09-27T10:50:21;93731.53;;;20.19;100.00
20013;BME280;10167;42.852;23.042;2022-09-27T10:53:35;93724.19;;;20.57;100.00
20013;BME280;10167;42.852;23.042;2022-09-27T10:56:20;93727.22;;;20.97;100.00
20013;BME280;10167;42.852;23.042;2022-09-27T10:58:51;93721.72;;;21.60;100.00
20013;BME280;10167;42.852;23.042;2022-09-27T11:01:21;93726.47;;;21.87;100.00
20013;BME280;10167;42.852;23.042;2022-09-27T11:04:20;93711.75;;;21.72;100.00
20013;BME280;10167;42.852;23.042;2022-09-27T11:07:06;93705.22;;;21.61;100.00
20013;BME280;10167;42.852;23.042;2022-09-27T11:09:46;93695.91;;;21.59;100.00
20013;BME280;10167;42.852;23.042;2022-09-27T11:12:17;93691.03;;;21.40;100.00
20013;BME280;10167;42.852;23.042;2022-09-27T11:14:53;93696.84;;;21.30;100.00
20013;BME280;10167;42.852;23.042;2022-09-27T11:17:32;93697.38;;;21.23;100.00
20013;BME280;10167;42.852;23.042;2022-09-27T11:20:21;93691.97;;;21.44;100.00
20013;BME280;10167;42.852;23.042;2022-09-27T11:23:19;93687.88;;;21.38;100.00
20013;BME280;10167;42.852;23.042;2022-09-27T11:26:02;93696.66;;;21.14;100.00
20013;BME280;10167;42.852;23.042;2022-09-27T11:28:46;93694.03;;;21.26;100.00
20013;BME280;10167;42.852;23.042;2022-09-27T11:31:37;93677.81;;;21.47;100.00
20013;BME280;10167;42.852;23.042;2022-09-27T11:34:39;93682.88;;;21.61;100.00
20013;BME280;10167;42.852;23.042;2022-09-27T11:37:15;93665.50;;;21.83;100.00
20013;BME280;10167;42.852;23.042;2022-09-27T11:46:05;93668.09;;;22.16;100.00
20013;BME280;10167;42.852;23.042;2022-09-27T11:49:13;93653.78;;;22.39;100.00
20013;BME280;10167;42.852;23.042;2022-09-27T11:51:58;93661.44;;;22.37;100.00
20013;BME280;10167;42.852;23.042;2022-09-27T11:54:41;93648.72;;;22.38;100.00
20013;BME280;10167;42.852;23.042;2022-09-27T11:57:18;93644.47;;;22.25;100.00
20013;BME280;10167;42.852;23.042;2022-09-27T12:00:17;93634.16;;;22.67;100.00
20013;BME280;10167;42.852;23.042;2022-09-27T12:06:16;93613.31;;;23.07;100.00
20013;BME280;10167;42.852;23.042;2022-09-27T12:08:55;93612.41;;;23.31;100.00
20013;BME280;10167;42.852;23.042;2022-09-27T12:11:31;93627.28;;;23.25;100.00
20013;BME280;10167;42.852;23.042;2022-09-27T12:14:10;93621.28;;;23.32;100.00
20013;BME280;10167;42.852;23.042;2022-09-27T12:16:42;93623.31;;;23.50;100.00
20013;BME280;10167;42.852;23.042;2022-09-27T12:19:17;93612.88;;;23.65;100.00
20013;BME280;10167;42.852;23.042;2022-09-27T12:22:11;93603.72;;;23.53;100.00
20013;BME280;10167;42.852;23.042;2022-09-27T12:24:45;93592.34;;;23.48;100.00
20013;BME280;10167;42.852;23.042;2022-09-27T12:27:45;93593.41;;;23.91;100.00
20013;BME280;10167;42.852;23.042;2022-09-27T12:30:20;93588.94;;;23.98;100.00
20013;BME280;10167;42.852;23.042;2022-09-27T12:32:54;93582.72;;;24.13;100.00
20013;BME280;10167;42.852;23.042;2022-09-27T12:35:28;93579.00;;;24.56;100.00
20013;BME280;10167;42.852;23.042;2022-09-27T12:38:00;93569.31;;;24.94;100.00
20013;BME280;10167;42.852;23.042;2022-09-27T12:40:35;93576.91;;;24.88;100.00
20013;BME280;10167;42.852;23.042;2022-09-27T12:43:15;93568.94;;;24.95;100.00
20013;BME280;10167;42.852;23.042;2022-09-27T12:46:03;93561.34;;;24.82;100.00
20013;BME280;10167;42.852;23.042;2022-09-27T12:48:45;93559.34;;;24.79;100.00
20013;BME280;10167;42.852;23.042;2022-09-27T12:51:19;93565.38;;;24.72;100.00
20013;BME280;10167;42.852;23.042;2022-09-27T12:54:09;93571.59;;;24.18;100.00
20013;BME280;10167;42.852;23.042;2022-09-27T12:56:57;93588.38;;;24.08;100.00
20013;BME280;10167;42.852;23.042;2022-09-27T12:59:41;93580.53;;;23.68;100.00
20013;BME280;10167;42.852;23.042;2022-09-27T13:02:34;93573.19;;;23.37;100.00
20013;BME280;10167;42.852;23.042;2022-09-27T13:05:40;93577.03;;;22.77;100.00
20013;BME280;10167;42.852;23.042;2022-09-27T13:08:28;93569.25;;;22.48;100.00
20013;BME280;10167;42.852;23.042;2022-09-27T13:11:09;93557.34;;;22.21;100.00
20013;BME280;10167;42.852;23.042;2022-09-27T13:13:39;93558.34;;;22.16;100.00
20013;BME280;10167;42.852;23.042;2022-09-27T13:16:10;93565.44;;;22.08;100.00
20013;BME280;10167;42.852;23.042;2022-09-27T13:18:56;93554.31;;;21.98;100.00
20013;BME280;10167;42.852;23.042;2022-09-27T13:21:54;93555.13;;;21.86;100.00
20013;BME280;10167;42.852;23.042;2022-09-27T13:24:47;93563.69;;;21.76;100.00
20013;BME280;10167;42.852;23.042;2022-09-27T13:27:49;93568.06;;;21.56;100.00
20013;BME280;10167;42.852;23.042;2022-09-27T13:30:46;93536.31;;;21.37;100.00
20013;BME280;10167;42.852;23.042;2022-09-27T13:33:31;93551.56;;;21.21;100.00
20013;BME280;10167;42.852;23.042;2022-09-27T13:36:28;93557.53;;;20.82;100.00
20013;BME280;10167;42.852;23.042;2022-09-27T13:39:19;93553.66;;;20.58;100.00
20013;BME280;10167;42.852;23.042;2022-09-27T13:42:15;93554.25;;;20.43;100.00
20013;BME280;10167;42.852;23.042;2022-09-27T13:44:59;93559.91;;;20.29;100.00
20013;BME280;10167;42.852;23.042;2022-09-27T13:47:35;93558.59;;;20.36;100.00
20013;BME280;10167;42.852;23.042;2022-09-27T13:50:19;93567.50;;;20.27;100.00